<?xml version="1.0" encoding="UTF-8" standalone="no" ?>
<gpx xmlns="http://www.topografix.com/GPX/1/1" xmlns:xsi="http://www.w3.org/2001/XMLSchema-instance" xsi:schemaLocation="http://www.topografix.com/GPX/1/1 http://www.topografix.com/GPX/1/1/gpx.xsd" version="1.1" creator="VisuGPX - https://www.visugpx.com">
  <metadata>
    <name>GR®21 de Quiberville-plage à Dieppe</name>
    <desc><![CDATA[étape 4]]></desc>
  </metadata>
  <trk>
    <name><![CDATA[GR®21 de Quiberville-plage à Dieppe]]></name>
    <trkseg>
      <trkpt lat="49.90525" lon="0.9251">
        <ele>2</ele>
        <time>2022-06-17T09:49:29+02:00</time>
      </trkpt>
      <trkpt lat="49.90538" lon="0.92539">
        <ele>2</ele>
        <time>2022-06-17T09:49:45+02:00</time>
      </trkpt>
      <trkpt lat="49.90547" lon="0.92572">
        <ele>2</ele>
        <time>2022-06-17T09:50:01+02:00</time>
      </trkpt>
      <trkpt lat="49.90549" lon="0.92642">
        <ele>4</ele>
        <time>2022-06-17T09:50:35+02:00</time>
      </trkpt>
      <trkpt lat="49.90556" lon="0.92676">
        <ele>5</ele>
        <time>2022-06-17T09:50:53+02:00</time>
      </trkpt>
      <trkpt lat="49.90567" lon="0.92708">
        <ele>5</ele>
        <time>2022-06-17T09:51:12+02:00</time>
      </trkpt>
      <trkpt lat="49.90576" lon="0.92742">
        <ele>5</ele>
        <time>2022-06-17T09:51:29+02:00</time>
      </trkpt>
      <trkpt lat="49.90585" lon="0.92774">
        <ele>4</ele>
        <time>2022-06-17T09:51:47+02:00</time>
      </trkpt>
      <trkpt lat="49.90596" lon="0.92805">
        <ele>3</ele>
        <time>2022-06-17T09:52:05+02:00</time>
      </trkpt>
      <trkpt lat="49.90606" lon="0.92837">
        <ele>2</ele>
        <time>2022-06-17T09:52:22+02:00</time>
      </trkpt>
      <trkpt lat="49.90616" lon="0.92869">
        <ele>2</ele>
        <time>2022-06-17T09:52:41+02:00</time>
      </trkpt>
      <trkpt lat="49.90626" lon="0.92901">
        <ele>1</ele>
        <time>2022-06-17T09:52:58+02:00</time>
      </trkpt>
      <trkpt lat="49.90637" lon="0.92932">
        <ele>1</ele>
        <time>2022-06-17T09:53:14+02:00</time>
      </trkpt>
      <trkpt lat="49.90647" lon="0.92965">
        <ele>1</ele>
        <time>2022-06-17T09:53:31+02:00</time>
      </trkpt>
      <trkpt lat="49.90657" lon="0.92997">
        <ele>2</ele>
        <time>2022-06-17T09:53:49+02:00</time>
      </trkpt>
      <trkpt lat="49.90667" lon="0.93031">
        <ele>2</ele>
        <time>2022-06-17T09:54:08+02:00</time>
      </trkpt>
      <trkpt lat="49.90677" lon="0.93063">
        <ele>2</ele>
        <time>2022-06-17T09:54:54+02:00</time>
      </trkpt>
      <trkpt lat="49.90685" lon="0.93097">
        <ele>2</ele>
        <time>2022-06-17T09:55:12+02:00</time>
      </trkpt>
      <trkpt lat="49.90693" lon="0.93132">
        <ele>2</ele>
        <time>2022-06-17T09:55:28+02:00</time>
      </trkpt>
      <trkpt lat="49.90703" lon="0.93165">
        <ele>2</ele>
        <time>2022-06-17T09:55:46+02:00</time>
      </trkpt>
      <trkpt lat="49.90711" lon="0.932">
        <ele>2</ele>
        <time>2022-06-17T09:56:04+02:00</time>
      </trkpt>
      <trkpt lat="49.90721" lon="0.93232">
        <ele>3</ele>
        <time>2022-06-17T09:56:23+02:00</time>
      </trkpt>
      <trkpt lat="49.90731" lon="0.93264">
        <ele>3</ele>
        <time>2022-06-17T09:56:41+02:00</time>
      </trkpt>
      <trkpt lat="49.90744" lon="0.93299">
        <ele>4</ele>
        <time>2022-06-17T10:06:46+02:00</time>
      </trkpt>
      <trkpt lat="49.90752" lon="0.93334">
        <ele>5</ele>
        <time>2022-06-17T10:07:03+02:00</time>
      </trkpt>
      <trkpt lat="49.90761" lon="0.93366">
        <ele>5</ele>
        <time>2022-06-17T10:07:24+02:00</time>
      </trkpt>
      <trkpt lat="49.90768" lon="0.93402">
        <ele>5</ele>
        <time>2022-06-17T10:07:42+02:00</time>
      </trkpt>
      <trkpt lat="49.90775" lon="0.93435">
        <ele>6</ele>
        <time>2022-06-17T10:08:00+02:00</time>
      </trkpt>
      <trkpt lat="49.90786" lon="0.93503">
        <ele>8</ele>
        <time>2022-06-17T10:08:34+02:00</time>
      </trkpt>
      <trkpt lat="49.90796" lon="0.93536">
        <ele>9</ele>
        <time>2022-06-17T10:14:48+02:00</time>
      </trkpt>
      <trkpt lat="49.90806" lon="0.93568">
        <ele>10</ele>
        <time>2022-06-17T10:15:09+02:00</time>
      </trkpt>
      <trkpt lat="49.9081" lon="0.93603">
        <ele>11</ele>
        <time>2022-06-17T10:15:27+02:00</time>
      </trkpt>
      <trkpt lat="49.9082" lon="0.93635">
        <ele>12</ele>
        <time>2022-06-17T10:15:45+02:00</time>
      </trkpt>
      <trkpt lat="49.90818" lon="0.9367">
        <ele>14</ele>
        <time>2022-06-17T10:16:01+02:00</time>
      </trkpt>
      <trkpt lat="49.9081" lon="0.93704">
        <ele>16</ele>
        <time>2022-06-17T10:16:24+02:00</time>
      </trkpt>
      <trkpt lat="49.908" lon="0.93735">
        <ele>18</ele>
        <time>2022-06-17T10:16:44+02:00</time>
      </trkpt>
      <trkpt lat="49.9079" lon="0.93767">
        <ele>20</ele>
        <time>2022-06-17T10:17:10+02:00</time>
      </trkpt>
      <trkpt lat="49.90781" lon="0.938">
        <ele>22</ele>
        <time>2022-06-17T10:17:32+02:00</time>
      </trkpt>
      <trkpt lat="49.90774" lon="0.93834">
        <ele>24</ele>
        <time>2022-06-17T10:18:19+02:00</time>
      </trkpt>
      <trkpt lat="49.90779" lon="0.93868">
        <ele>25</ele>
        <time>2022-06-17T10:18:52+02:00</time>
      </trkpt>
      <trkpt lat="49.90786" lon="0.93902">
        <ele>26</ele>
        <time>2022-06-17T10:19:13+02:00</time>
      </trkpt>
      <trkpt lat="49.90791" lon="0.93937">
        <ele>28</ele>
        <time>2022-06-17T10:19:34+02:00</time>
      </trkpt>
      <trkpt lat="49.90794" lon="0.93973">
        <ele>30</ele>
        <time>2022-06-17T10:19:53+02:00</time>
      </trkpt>
      <trkpt lat="49.908" lon="0.94008">
        <ele>31</ele>
        <time>2022-06-17T10:20:13+02:00</time>
      </trkpt>
      <trkpt lat="49.90807" lon="0.94041">
        <ele>33</ele>
        <time>2022-06-17T10:20:35+02:00</time>
      </trkpt>
      <trkpt lat="49.90808" lon="0.94077">
        <ele>36</ele>
        <time>2022-06-17T10:20:53+02:00</time>
      </trkpt>
      <trkpt lat="49.90812" lon="0.94113">
        <ele>38</ele>
        <time>2022-06-17T10:21:14+02:00</time>
      </trkpt>
      <trkpt lat="49.90815" lon="0.94149">
        <ele>41</ele>
        <time>2022-06-17T10:23:30+02:00</time>
      </trkpt>
      <trkpt lat="49.90819" lon="0.94184">
        <ele>43</ele>
        <time>2022-06-17T10:23:50+02:00</time>
      </trkpt>
      <trkpt lat="49.90831" lon="0.94252">
        <ele>44</ele>
        <time>2022-06-17T10:24:30+02:00</time>
      </trkpt>
      <trkpt lat="49.90838" lon="0.94286">
        <ele>44</ele>
        <time>2022-06-17T10:24:49+02:00</time>
      </trkpt>
      <trkpt lat="49.90839" lon="0.94323">
        <ele>45</ele>
        <time>2022-06-17T10:25:09+02:00</time>
      </trkpt>
      <trkpt lat="49.90845" lon="0.94357">
        <ele>44</ele>
        <time>2022-06-17T10:25:32+02:00</time>
      </trkpt>
      <trkpt lat="49.90847" lon="0.94393">
        <ele>44</ele>
        <time>2022-06-17T10:26:09+02:00</time>
      </trkpt>
      <trkpt lat="49.90844" lon="0.94428">
        <ele>44</ele>
        <time>2022-06-17T10:26:35+02:00</time>
      </trkpt>
      <trkpt lat="49.90847" lon="0.94463">
        <ele>43</ele>
        <time>2022-06-17T10:26:49+02:00</time>
      </trkpt>
      <trkpt lat="49.90854" lon="0.94496">
        <ele>42</ele>
        <time>2022-06-17T10:27:04+02:00</time>
      </trkpt>
      <trkpt lat="49.90868" lon="0.94525">
        <ele>42</ele>
        <time>2022-06-17T10:27:23+02:00</time>
      </trkpt>
      <trkpt lat="49.90886" lon="0.94549">
        <ele>42</ele>
        <time>2022-06-17T10:27:41+02:00</time>
      </trkpt>
      <trkpt lat="49.90896" lon="0.94582">
        <ele>43</ele>
        <time>2022-06-17T10:28:00+02:00</time>
      </trkpt>
      <trkpt lat="49.9091" lon="0.9461">
        <ele>44</ele>
        <time>2022-06-17T10:28:20+02:00</time>
      </trkpt>
      <trkpt lat="49.90915" lon="0.94645">
        <ele>46</ele>
        <time>2022-06-17T10:28:39+02:00</time>
      </trkpt>
      <trkpt lat="49.90917" lon="0.9468">
        <ele>48</ele>
        <time>2022-06-17T10:29:01+02:00</time>
      </trkpt>
      <trkpt lat="49.90905" lon="0.94711">
        <ele>49</ele>
        <time>2022-06-17T10:29:18+02:00</time>
      </trkpt>
      <trkpt lat="49.90909" lon="0.94747">
        <ele>51</ele>
        <time>2022-06-17T10:29:42+02:00</time>
      </trkpt>
      <trkpt lat="49.90907" lon="0.94783">
        <ele>52</ele>
        <time>2022-06-17T10:30:01+02:00</time>
      </trkpt>
      <trkpt lat="49.90905" lon="0.94821">
        <ele>54</ele>
        <time>2022-06-17T10:30:32+02:00</time>
      </trkpt>
      <trkpt lat="49.909" lon="0.94856">
        <ele>57</ele>
        <time>2022-06-17T10:30:45+02:00</time>
      </trkpt>
      <trkpt lat="49.90905" lon="0.9489">
        <ele>61</ele>
        <time>2022-06-17T10:31:04+02:00</time>
      </trkpt>
      <trkpt lat="49.90907" lon="0.94926">
        <ele>65</ele>
        <time>2022-06-17T10:31:24+02:00</time>
      </trkpt>
      <trkpt lat="49.90906" lon="0.94962">
        <ele>68</ele>
        <time>2022-06-17T10:31:45+02:00</time>
      </trkpt>
      <trkpt lat="49.90906" lon="0.94999">
        <ele>71</ele>
        <time>2022-06-17T10:32:04+02:00</time>
      </trkpt>
      <trkpt lat="49.90905" lon="0.95034">
        <ele>73</ele>
        <time>2022-06-17T10:32:23+02:00</time>
      </trkpt>
      <trkpt lat="49.90903" lon="0.9507">
        <ele>74</ele>
        <time>2022-06-17T10:32:53+02:00</time>
      </trkpt>
      <trkpt lat="49.90904" lon="0.95106">
        <ele>77</ele>
        <time>2022-06-17T10:33:09+02:00</time>
      </trkpt>
      <trkpt lat="49.90906" lon="0.95142">
        <ele>79</ele>
        <time>2022-06-17T10:33:31+02:00</time>
      </trkpt>
      <trkpt lat="49.90904" lon="0.95178">
        <ele>81</ele>
        <time>2022-06-17T10:33:49+02:00</time>
      </trkpt>
      <trkpt lat="49.90905" lon="0.95213">
        <ele>81</ele>
        <time>2022-06-17T10:34:07+02:00</time>
      </trkpt>
      <trkpt lat="49.90908" lon="0.95248">
        <ele>82</ele>
        <time>2022-06-17T10:34:27+02:00</time>
      </trkpt>
      <trkpt lat="49.90909" lon="0.95284">
        <ele>82</ele>
        <time>2022-06-17T10:34:46+02:00</time>
      </trkpt>
      <trkpt lat="49.90917" lon="0.9532">
        <ele>83</ele>
        <time>2022-06-17T10:35:04+02:00</time>
      </trkpt>
      <trkpt lat="49.90917" lon="0.95355">
        <ele>83</ele>
        <time>2022-06-17T10:35:20+02:00</time>
      </trkpt>
      <trkpt lat="49.90922" lon="0.95389">
        <ele>83</ele>
        <time>2022-06-17T10:35:39+02:00</time>
      </trkpt>
      <trkpt lat="49.9093" lon="0.95423">
        <ele>83</ele>
        <time>2022-06-17T10:35:58+02:00</time>
      </trkpt>
      <trkpt lat="49.90935" lon="0.95457">
        <ele>84</ele>
        <time>2022-06-17T10:36:17+02:00</time>
      </trkpt>
      <trkpt lat="49.90939" lon="0.95493">
        <ele>85</ele>
        <time>2022-06-17T10:36:34+02:00</time>
      </trkpt>
      <trkpt lat="49.90943" lon="0.95529">
        <ele>85</ele>
        <time>2022-06-17T10:37:02+02:00</time>
      </trkpt>
      <trkpt lat="49.90951" lon="0.95563">
        <ele>85</ele>
        <time>2022-06-17T10:37:19+02:00</time>
      </trkpt>
      <trkpt lat="49.90969" lon="0.95587">
        <ele>86</ele>
        <time>2022-06-17T10:37:42+02:00</time>
      </trkpt>
      <trkpt lat="49.90987" lon="0.9561">
        <ele>86</ele>
        <time>2022-06-17T10:38:05+02:00</time>
      </trkpt>
      <trkpt lat="49.91005" lon="0.95631">
        <ele>86</ele>
        <time>2022-06-17T10:38:21+02:00</time>
      </trkpt>
      <trkpt lat="49.91023" lon="0.95657">
        <ele>86</ele>
        <time>2022-06-17T10:38:45+02:00</time>
      </trkpt>
      <trkpt lat="49.91041" lon="0.95679">
        <ele>86</ele>
        <time>2022-06-17T10:39:01+02:00</time>
      </trkpt>
      <trkpt lat="49.91058" lon="0.95703">
        <ele>87</ele>
        <time>2022-06-17T10:39:19+02:00</time>
      </trkpt>
      <trkpt lat="49.91074" lon="0.95728">
        <ele>88</ele>
        <time>2022-06-17T10:39:36+02:00</time>
      </trkpt>
      <trkpt lat="49.91091" lon="0.95753">
        <ele>89</ele>
        <time>2022-06-17T10:39:53+02:00</time>
      </trkpt>
      <trkpt lat="49.91109" lon="0.95775">
        <ele>88</ele>
        <time>2022-06-17T10:40:12+02:00</time>
      </trkpt>
      <trkpt lat="49.91132" lon="0.95785">
        <ele>87</ele>
        <time>2022-06-17T10:40:31+02:00</time>
      </trkpt>
      <trkpt lat="49.91143" lon="0.95816">
        <ele>87</ele>
        <time>2022-06-17T10:40:48+02:00</time>
      </trkpt>
      <trkpt lat="49.91158" lon="0.95842">
        <ele>87</ele>
        <time>2022-06-17T10:41:04+02:00</time>
      </trkpt>
      <trkpt lat="49.91178" lon="0.95861">
        <ele>87</ele>
        <time>2022-06-17T10:41:27+02:00</time>
      </trkpt>
      <trkpt lat="49.91202" lon="0.95862">
        <ele>86</ele>
        <time>2022-06-17T10:41:45+02:00</time>
      </trkpt>
      <trkpt lat="49.9122" lon="0.95884">
        <ele>87</ele>
        <time>2022-06-17T10:42:05+02:00</time>
      </trkpt>
      <trkpt lat="49.91242" lon="0.95895">
        <ele>87</ele>
        <time>2022-06-17T10:42:23+02:00</time>
      </trkpt>
      <trkpt lat="49.91261" lon="0.95916">
        <ele>86</ele>
        <time>2022-06-17T10:42:45+02:00</time>
      </trkpt>
      <trkpt lat="49.91284" lon="0.95914">
        <ele>85</ele>
        <time>2022-06-17T10:43:08+02:00</time>
      </trkpt>
      <trkpt lat="49.913" lon="0.95891">
        <ele>84</ele>
        <time>2022-06-17T10:43:31+02:00</time>
      </trkpt>
      <trkpt lat="49.91318" lon="0.95867">
        <ele>83</ele>
        <time>2022-06-17T10:43:51+02:00</time>
      </trkpt>
      <trkpt lat="49.91341" lon="0.95862">
        <ele>81</ele>
        <time>2022-06-17T10:44:09+02:00</time>
      </trkpt>
      <trkpt lat="49.91365" lon="0.95862">
        <ele>80</ele>
        <time>2022-06-17T10:45:00+02:00</time>
      </trkpt>
      <trkpt lat="49.91384" lon="0.95883">
        <ele>80</ele>
        <time>2022-06-17T10:45:17+02:00</time>
      </trkpt>
      <trkpt lat="49.91405" lon="0.95896">
        <ele>79</ele>
        <time>2022-06-17T10:45:44+02:00</time>
      </trkpt>
      <trkpt lat="49.91427" lon="0.95889">
        <ele>79</ele>
        <time>2022-06-17T10:45:59+02:00</time>
      </trkpt>
      <trkpt lat="49.91451" lon="0.95891">
        <ele>80</ele>
        <time>2022-06-17T10:46:23+02:00</time>
      </trkpt>
      <trkpt lat="49.9147" lon="0.95909">
        <ele>82</ele>
        <time>2022-06-17T10:46:46+02:00</time>
      </trkpt>
      <trkpt lat="49.91491" lon="0.95924">
        <ele>84</ele>
        <time>2022-06-17T10:47:14+02:00</time>
      </trkpt>
      <trkpt lat="49.91515" lon="0.9592">
        <ele>84</ele>
        <time>2022-06-17T10:47:34+02:00</time>
      </trkpt>
      <trkpt lat="49.91534" lon="0.95901">
        <ele>83</ele>
        <time>2022-06-17T10:47:56+02:00</time>
      </trkpt>
      <trkpt lat="49.91557" lon="0.95901">
        <ele>83</ele>
        <time>2022-06-17T10:48:24+02:00</time>
      </trkpt>
      <trkpt lat="49.91564" lon="0.95908">
        <ele>83</ele>
        <time>2022-06-17T11:11:32+02:00</time>
      </trkpt>
      <trkpt lat="49.91555" lon="0.95939">
        <ele>84</ele>
        <time>2022-06-17T11:12:28+02:00</time>
      </trkpt>
      <trkpt lat="49.91561" lon="0.95973">
        <ele>84</ele>
        <time>2022-06-17T11:12:46+02:00</time>
      </trkpt>
      <trkpt lat="49.91564" lon="0.96009">
        <ele>84</ele>
        <time>2022-06-17T11:13:06+02:00</time>
      </trkpt>
      <trkpt lat="49.91563" lon="0.96044">
        <ele>84</ele>
        <time>2022-06-17T11:13:25+02:00</time>
      </trkpt>
      <trkpt lat="49.91585" lon="0.96051">
        <ele>84</ele>
        <time>2022-06-17T11:14:04+02:00</time>
      </trkpt>
      <trkpt lat="49.91609" lon="0.96047">
        <ele>83</ele>
        <time>2022-06-17T11:14:15+02:00</time>
      </trkpt>
      <trkpt lat="49.91629" lon="0.96063">
        <ele>83</ele>
        <time>2022-06-17T11:15:21+02:00</time>
      </trkpt>
      <trkpt lat="49.91637" lon="0.96096">
        <ele>84</ele>
        <time>2022-06-17T11:15:35+02:00</time>
      </trkpt>
      <trkpt lat="49.91637" lon="0.96132">
        <ele>85</ele>
        <time>2022-06-17T11:16:01+02:00</time>
      </trkpt>
      <trkpt lat="49.91641" lon="0.96168">
        <ele>85</ele>
        <time>2022-06-17T11:16:15+02:00</time>
      </trkpt>
      <trkpt lat="49.9165" lon="0.96201">
        <ele>86</ele>
        <time>2022-06-17T11:16:30+02:00</time>
      </trkpt>
      <trkpt lat="49.91655" lon="0.96236">
        <ele>86</ele>
        <time>2022-06-17T11:16:52+02:00</time>
      </trkpt>
      <trkpt lat="49.91659" lon="0.96271">
        <ele>86</ele>
        <time>2022-06-17T11:17:11+02:00</time>
      </trkpt>
      <trkpt lat="49.91665" lon="0.96305">
        <ele>86</ele>
        <time>2022-06-17T11:17:32+02:00</time>
      </trkpt>
      <trkpt lat="49.91672" lon="0.96339">
        <ele>86</ele>
        <time>2022-06-17T11:17:49+02:00</time>
      </trkpt>
      <trkpt lat="49.91674" lon="0.96376">
        <ele>85</ele>
        <time>2022-06-17T11:18:04+02:00</time>
      </trkpt>
      <trkpt lat="49.91681" lon="0.96409">
        <ele>85</ele>
        <time>2022-06-17T11:18:22+02:00</time>
      </trkpt>
      <trkpt lat="49.91702" lon="0.96423">
        <ele>84</ele>
        <time>2022-06-17T11:18:39+02:00</time>
      </trkpt>
      <trkpt lat="49.91718" lon="0.96449">
        <ele>83</ele>
        <time>2022-06-17T11:18:58+02:00</time>
      </trkpt>
      <trkpt lat="49.91739" lon="0.96512">
        <ele>83</ele>
        <time>2022-06-17T11:19:36+02:00</time>
      </trkpt>
      <trkpt lat="49.91751" lon="0.96543">
        <ele>82</ele>
        <time>2022-06-17T11:19:55+02:00</time>
      </trkpt>
      <trkpt lat="49.91762" lon="0.96574">
        <ele>81</ele>
        <time>2022-06-17T11:20:14+02:00</time>
      </trkpt>
      <trkpt lat="49.91772" lon="0.96606">
        <ele>78</ele>
        <time>2022-06-17T11:20:31+02:00</time>
      </trkpt>
      <trkpt lat="49.91774" lon="0.96641">
        <ele>76</ele>
        <time>2022-06-17T11:20:51+02:00</time>
      </trkpt>
      <trkpt lat="49.9176" lon="0.96669">
        <ele>77</ele>
        <time>2022-06-17T11:21:05+02:00</time>
      </trkpt>
      <trkpt lat="49.9174" lon="0.96686">
        <ele>77</ele>
        <time>2022-06-17T11:21:33+02:00</time>
      </trkpt>
      <trkpt lat="49.91717" lon="0.96692">
        <ele>76</ele>
        <time>2022-06-17T11:21:51+02:00</time>
      </trkpt>
      <trkpt lat="49.91694" lon="0.96698">
        <ele>75</ele>
        <time>2022-06-17T11:22:10+02:00</time>
      </trkpt>
      <trkpt lat="49.91672" lon="0.96711">
        <ele>73</ele>
        <time>2022-06-17T11:22:31+02:00</time>
      </trkpt>
      <trkpt lat="49.9167" lon="0.96746">
        <ele>70</ele>
        <time>2022-06-17T11:22:51+02:00</time>
      </trkpt>
      <trkpt lat="49.91683" lon="0.96774">
        <ele>68</ele>
        <time>2022-06-17T11:23:10+02:00</time>
      </trkpt>
      <trkpt lat="49.91703" lon="0.96794">
        <ele>67</ele>
        <time>2022-06-17T11:23:30+02:00</time>
      </trkpt>
      <trkpt lat="49.91712" lon="0.96828">
        <ele>65</ele>
        <time>2022-06-17T11:23:46+02:00</time>
      </trkpt>
      <trkpt lat="49.91729" lon="0.96853">
        <ele>64</ele>
        <time>2022-06-17T11:24:03+02:00</time>
      </trkpt>
      <trkpt lat="49.91746" lon="0.96877">
        <ele>63</ele>
        <time>2022-06-17T11:24:23+02:00</time>
      </trkpt>
      <trkpt lat="49.91765" lon="0.96936">
        <ele>58</ele>
        <time>2022-06-17T11:25:05+02:00</time>
      </trkpt>
      <trkpt lat="49.91762" lon="0.96972">
        <ele>56</ele>
        <time>2022-06-17T11:25:25+02:00</time>
      </trkpt>
      <trkpt lat="49.91762" lon="0.97007">
        <ele>53</ele>
        <time>2022-06-17T11:25:46+02:00</time>
      </trkpt>
      <trkpt lat="49.91765" lon="0.97041">
        <ele>51</ele>
        <time>2022-06-17T11:26:05+02:00</time>
      </trkpt>
      <trkpt lat="49.91763" lon="0.97078">
        <ele>48</ele>
        <time>2022-06-17T11:26:27+02:00</time>
      </trkpt>
      <trkpt lat="49.91751" lon="0.97107">
        <ele>47</ele>
        <time>2022-06-17T11:27:22+02:00</time>
      </trkpt>
      <trkpt lat="49.91729" lon="0.97115">
        <ele>48</ele>
        <time>2022-06-17T11:28:10+02:00</time>
      </trkpt>
      <trkpt lat="49.91707" lon="0.97124">
        <ele>50</ele>
        <time>2022-06-17T11:28:34+02:00</time>
      </trkpt>
      <trkpt lat="49.91684" lon="0.97124">
        <ele>52</ele>
        <time>2022-06-17T11:29:05+02:00</time>
      </trkpt>
      <trkpt lat="49.91666" lon="0.97146">
        <ele>53</ele>
        <time>2022-06-17T11:29:25+02:00</time>
      </trkpt>
      <trkpt lat="49.91653" lon="0.97177">
        <ele>55</ele>
        <time>2022-06-17T11:29:45+02:00</time>
      </trkpt>
      <trkpt lat="49.91657" lon="0.97212">
        <ele>55</ele>
        <time>2022-06-17T11:30:09+02:00</time>
      </trkpt>
      <trkpt lat="49.91658" lon="0.97247">
        <ele>56</ele>
        <time>2022-06-17T11:30:33+02:00</time>
      </trkpt>
      <trkpt lat="49.9166" lon="0.97283">
        <ele>56</ele>
        <time>2022-06-17T11:31:45+02:00</time>
      </trkpt>
      <trkpt lat="49.91667" lon="0.97317">
        <ele>55</ele>
        <time>2022-06-17T11:32:04+02:00</time>
      </trkpt>
      <trkpt lat="49.91665" lon="0.97353">
        <ele>54</ele>
        <time>2022-06-17T11:32:24+02:00</time>
      </trkpt>
      <trkpt lat="49.91665" lon="0.97388">
        <ele>53</ele>
        <time>2022-06-17T11:32:49+02:00</time>
      </trkpt>
      <trkpt lat="49.9167" lon="0.97423">
        <ele>51</ele>
        <time>2022-06-17T11:33:11+02:00</time>
      </trkpt>
      <trkpt lat="49.91654" lon="0.97449">
        <ele>54</ele>
        <time>2022-06-17T11:33:39+02:00</time>
      </trkpt>
      <trkpt lat="49.91632" lon="0.97455">
        <ele>56</ele>
        <time>2022-06-17T11:34:00+02:00</time>
      </trkpt>
      <trkpt lat="49.9161" lon="0.97465">
        <ele>59</ele>
        <time>2022-06-17T11:34:26+02:00</time>
      </trkpt>
      <trkpt lat="49.91587" lon="0.97476">
        <ele>61</ele>
        <time>2022-06-17T11:34:57+02:00</time>
      </trkpt>
      <trkpt lat="49.91564" lon="0.97486">
        <ele>63</ele>
        <time>2022-06-17T11:35:15+02:00</time>
      </trkpt>
      <trkpt lat="49.91542" lon="0.97498">
        <ele>64</ele>
        <time>2022-06-17T11:35:33+02:00</time>
      </trkpt>
      <trkpt lat="49.91519" lon="0.97496">
        <ele>65</ele>
        <time>2022-06-17T11:35:52+02:00</time>
      </trkpt>
      <trkpt lat="49.91494" lon="0.97496">
        <ele>67</ele>
        <time>2022-06-17T11:36:11+02:00</time>
      </trkpt>
      <trkpt lat="49.91486" lon="0.97528">
        <ele>68</ele>
        <time>2022-06-17T11:36:35+02:00</time>
      </trkpt>
      <trkpt lat="49.91483" lon="0.97565">
        <ele>70</ele>
        <time>2022-06-17T11:36:57+02:00</time>
      </trkpt>
      <trkpt lat="49.91477" lon="0.976">
        <ele>72</ele>
        <time>2022-06-17T11:37:17+02:00</time>
      </trkpt>
      <trkpt lat="49.91461" lon="0.97626">
        <ele>76</ele>
        <time>2022-06-17T11:37:58+02:00</time>
      </trkpt>
      <trkpt lat="49.91447" lon="0.97654">
        <ele>79</ele>
        <time>2022-06-17T11:38:15+02:00</time>
      </trkpt>
      <trkpt lat="49.91435" lon="0.97684">
        <ele>82</ele>
        <time>2022-06-17T11:38:45+02:00</time>
      </trkpt>
      <trkpt lat="49.91434" lon="0.97721">
        <ele>84</ele>
        <time>2022-06-17T11:39:29+02:00</time>
      </trkpt>
      <trkpt lat="49.91419" lon="0.9775">
        <ele>86</ele>
        <time>2022-06-17T11:39:49+02:00</time>
      </trkpt>
      <trkpt lat="49.91402" lon="0.97775">
        <ele>85</ele>
        <time>2022-06-17T11:40:12+02:00</time>
      </trkpt>
      <trkpt lat="49.91388" lon="0.97804">
        <ele>85</ele>
        <time>2022-06-17T11:40:43+02:00</time>
      </trkpt>
      <trkpt lat="49.91366" lon="0.9782">
        <ele>85</ele>
        <time>2022-06-17T11:41:04+02:00</time>
      </trkpt>
      <trkpt lat="49.91343" lon="0.97822">
        <ele>85</ele>
        <time>2022-06-17T11:41:24+02:00</time>
      </trkpt>
      <trkpt lat="49.91321" lon="0.97833">
        <ele>85</ele>
        <time>2022-06-17T11:41:54+02:00</time>
      </trkpt>
      <trkpt lat="49.91318" lon="0.97905">
        <ele>86</ele>
        <time>2022-06-17T11:42:28+02:00</time>
      </trkpt>
      <trkpt lat="49.91317" lon="0.9794">
        <ele>86</ele>
        <time>2022-06-17T11:42:50+02:00</time>
      </trkpt>
      <trkpt lat="49.91316" lon="0.97976">
        <ele>85</ele>
        <time>2022-06-17T11:43:12+02:00</time>
      </trkpt>
      <trkpt lat="49.91316" lon="0.98012">
        <ele>85</ele>
        <time>2022-06-17T11:43:32+02:00</time>
      </trkpt>
      <trkpt lat="49.91323" lon="0.98045">
        <ele>85</ele>
        <time>2022-06-17T11:43:51+02:00</time>
      </trkpt>
      <trkpt lat="49.91327" lon="0.9808">
        <ele>85</ele>
        <time>2022-06-17T11:44:10+02:00</time>
      </trkpt>
      <trkpt lat="49.91327" lon="0.98117">
        <ele>84</ele>
        <time>2022-06-17T11:44:33+02:00</time>
      </trkpt>
      <trkpt lat="49.91349" lon="0.98131">
        <ele>85</ele>
        <time>2022-06-17T11:44:52+02:00</time>
      </trkpt>
      <trkpt lat="49.91372" lon="0.98138">
        <ele>85</ele>
        <time>2022-06-17T11:45:09+02:00</time>
      </trkpt>
      <trkpt lat="49.91395" lon="0.98142">
        <ele>85</ele>
        <time>2022-06-17T11:45:36+02:00</time>
      </trkpt>
      <trkpt lat="49.91419" lon="0.98148">
        <ele>85</ele>
        <time>2022-06-17T11:46:01+02:00</time>
      </trkpt>
      <trkpt lat="49.91441" lon="0.98142">
        <ele>84</ele>
        <time>2022-06-17T11:46:19+02:00</time>
      </trkpt>
      <trkpt lat="49.91464" lon="0.98143">
        <ele>84</ele>
        <time>2022-06-17T11:46:50+02:00</time>
      </trkpt>
      <trkpt lat="49.91488" lon="0.98148">
        <ele>83</ele>
        <time>2022-06-17T11:47:10+02:00</time>
      </trkpt>
      <trkpt lat="49.91509" lon="0.98159">
        <ele>83</ele>
        <time>2022-06-17T11:47:31+02:00</time>
      </trkpt>
      <trkpt lat="49.91529" lon="0.98178">
        <ele>83</ele>
        <time>2022-06-17T11:47:48+02:00</time>
      </trkpt>
      <trkpt lat="49.9155" lon="0.98194">
        <ele>82</ele>
        <time>2022-06-17T11:48:04+02:00</time>
      </trkpt>
      <trkpt lat="49.91569" lon="0.98211">
        <ele>81</ele>
        <time>2022-06-17T11:48:27+02:00</time>
      </trkpt>
      <trkpt lat="49.91593" lon="0.98205">
        <ele>81</ele>
        <time>2022-06-17T11:48:42+02:00</time>
      </trkpt>
      <trkpt lat="49.91615" lon="0.98198">
        <ele>80</ele>
        <time>2022-06-17T11:49:04+02:00</time>
      </trkpt>
      <trkpt lat="49.91637" lon="0.98204">
        <ele>78</ele>
        <time>2022-06-17T11:49:21+02:00</time>
      </trkpt>
      <trkpt lat="49.91652" lon="0.98231">
        <ele>75</ele>
        <time>2022-06-17T11:49:59+02:00</time>
      </trkpt>
      <trkpt lat="49.91657" lon="0.98266">
        <ele>72</ele>
        <time>2022-06-17T11:50:30+02:00</time>
      </trkpt>
      <trkpt lat="49.91679" lon="0.98278">
        <ele>68</ele>
        <time>2022-06-17T11:52:32+02:00</time>
      </trkpt>
      <trkpt lat="49.91675" lon="0.98242">
        <ele>72</ele>
        <time>2022-06-17T11:54:53+02:00</time>
      </trkpt>
      <trkpt lat="49.91657" lon="0.98218">
        <ele>76</ele>
        <time>2022-06-17T11:55:24+02:00</time>
      </trkpt>
      <trkpt lat="49.91635" lon="0.98204">
        <ele>78</ele>
        <time>2022-06-17T11:59:23+02:00</time>
      </trkpt>
      <trkpt lat="49.91613" lon="0.98199">
        <ele>80</ele>
        <time>2022-06-17T11:59:50+02:00</time>
      </trkpt>
      <trkpt lat="49.9159" lon="0.98207">
        <ele>81</ele>
        <time>2022-06-17T12:00:13+02:00</time>
      </trkpt>
      <trkpt lat="49.91591" lon="0.98243">
        <ele>79</ele>
        <time>2022-06-17T12:02:34+02:00</time>
      </trkpt>
      <trkpt lat="49.91593" lon="0.9828">
        <ele>75</ele>
        <time>2022-06-17T12:02:55+02:00</time>
      </trkpt>
      <trkpt lat="49.91599" lon="0.98314">
        <ele>71</ele>
        <time>2022-06-17T12:03:21+02:00</time>
      </trkpt>
      <trkpt lat="49.91597" lon="0.98349">
        <ele>67</ele>
        <time>2022-06-17T12:03:40+02:00</time>
      </trkpt>
      <trkpt lat="49.91603" lon="0.98383">
        <ele>62</ele>
        <time>2022-06-17T12:04:02+02:00</time>
      </trkpt>
      <trkpt lat="49.91611" lon="0.98417">
        <ele>58</ele>
        <time>2022-06-17T12:04:32+02:00</time>
      </trkpt>
      <trkpt lat="49.91618" lon="0.98451">
        <ele>54</ele>
        <time>2022-06-17T12:04:55+02:00</time>
      </trkpt>
      <trkpt lat="49.91627" lon="0.98484">
        <ele>50</ele>
        <time>2022-06-17T12:05:18+02:00</time>
      </trkpt>
      <trkpt lat="49.91639" lon="0.98515">
        <ele>47</ele>
        <time>2022-06-17T12:06:22+02:00</time>
      </trkpt>
      <trkpt lat="49.9165" lon="0.98546">
        <ele>43</ele>
        <time>2022-06-17T12:06:45+02:00</time>
      </trkpt>
      <trkpt lat="49.91664" lon="0.98574">
        <ele>40</ele>
        <time>2022-06-17T12:07:06+02:00</time>
      </trkpt>
      <trkpt lat="49.91677" lon="0.98603">
        <ele>36</ele>
        <time>2022-06-17T12:07:26+02:00</time>
      </trkpt>
      <trkpt lat="49.9169" lon="0.98632">
        <ele>32</ele>
        <time>2022-06-17T12:07:49+02:00</time>
      </trkpt>
      <trkpt lat="49.91677" lon="0.98661">
        <ele>33</ele>
        <time>2022-06-17T12:09:15+02:00</time>
      </trkpt>
      <trkpt lat="49.91654" lon="0.98652">
        <ele>37</ele>
        <time>2022-06-17T12:09:40+02:00</time>
      </trkpt>
      <trkpt lat="49.91632" lon="0.98642">
        <ele>40</ele>
        <time>2022-06-17T12:10:01+02:00</time>
      </trkpt>
      <trkpt lat="49.9161" lon="0.98631">
        <ele>42</ele>
        <time>2022-06-17T12:10:19+02:00</time>
      </trkpt>
      <trkpt lat="49.9159" lon="0.98613">
        <ele>44</ele>
        <time>2022-06-17T12:10:45+02:00</time>
      </trkpt>
      <trkpt lat="49.9157" lon="0.98595">
        <ele>48</ele>
        <time>2022-06-17T12:11:08+02:00</time>
      </trkpt>
      <trkpt lat="49.9155" lon="0.98575">
        <ele>52</ele>
        <time>2022-06-17T12:11:54+02:00</time>
      </trkpt>
      <trkpt lat="49.91528" lon="0.98564">
        <ele>56</ele>
        <time>2022-06-17T12:12:12+02:00</time>
      </trkpt>
      <trkpt lat="49.91508" lon="0.98546">
        <ele>58</ele>
        <time>2022-06-17T12:12:27+02:00</time>
      </trkpt>
      <trkpt lat="49.915" lon="0.98579">
        <ele>61</ele>
        <time>2022-06-17T12:12:50+02:00</time>
      </trkpt>
      <trkpt lat="49.91508" lon="0.98611">
        <ele>61</ele>
        <time>2022-06-17T12:13:14+02:00</time>
      </trkpt>
      <trkpt lat="49.91504" lon="0.98646">
        <ele>63</ele>
        <time>2022-06-17T12:13:44+02:00</time>
      </trkpt>
      <trkpt lat="49.91484" lon="0.98662">
        <ele>67</ele>
        <time>2022-06-17T12:14:13+02:00</time>
      </trkpt>
      <trkpt lat="49.91465" lon="0.9864">
        <ele>68</ele>
        <time>2022-06-17T12:14:34+02:00</time>
      </trkpt>
      <trkpt lat="49.91443" lon="0.98642">
        <ele>72</ele>
        <time>2022-06-17T12:15:09+02:00</time>
      </trkpt>
      <trkpt lat="49.9142" lon="0.98634">
        <ele>74</ele>
        <time>2022-06-17T12:15:25+02:00</time>
      </trkpt>
      <trkpt lat="49.91411" lon="0.98668">
        <ele>76</ele>
        <time>2022-06-17T12:15:57+02:00</time>
      </trkpt>
      <trkpt lat="49.91411" lon="0.98703">
        <ele>74</ele>
        <time>2022-06-17T12:16:16+02:00</time>
      </trkpt>
      <trkpt lat="49.91413" lon="0.9874">
        <ele>72</ele>
        <time>2022-06-17T12:16:39+02:00</time>
      </trkpt>
      <trkpt lat="49.91421" lon="0.98774">
        <ele>69</ele>
        <time>2022-06-17T12:16:59+02:00</time>
      </trkpt>
      <trkpt lat="49.91437" lon="0.98802">
        <ele>64</ele>
        <time>2022-06-17T12:17:24+02:00</time>
      </trkpt>
      <trkpt lat="49.91447" lon="0.98834">
        <ele>60</ele>
        <time>2022-06-17T12:17:52+02:00</time>
      </trkpt>
      <trkpt lat="49.91457" lon="0.98867">
        <ele>59</ele>
        <time>2022-06-17T12:18:07+02:00</time>
      </trkpt>
      <trkpt lat="49.91451" lon="0.98902">
        <ele>60</ele>
        <time>2022-06-17T12:18:41+02:00</time>
      </trkpt>
      <trkpt lat="49.9144" lon="0.98935">
        <ele>64</ele>
        <time>2022-06-17T12:19:09+02:00</time>
      </trkpt>
      <trkpt lat="49.91429" lon="0.98966">
        <ele>67</ele>
        <time>2022-06-17T12:19:26+02:00</time>
      </trkpt>
      <trkpt lat="49.91423" lon="0.99001">
        <ele>69</ele>
        <time>2022-06-17T12:21:12+02:00</time>
      </trkpt>
      <trkpt lat="49.91415" lon="0.99034">
        <ele>69</ele>
        <time>2022-06-17T12:21:35+02:00</time>
      </trkpt>
      <trkpt lat="49.91402" lon="0.99063">
        <ele>70</ele>
        <time>2022-06-17T12:22:05+02:00</time>
      </trkpt>
      <trkpt lat="49.91406" lon="0.99099">
        <ele>72</ele>
        <time>2022-06-17T12:22:30+02:00</time>
      </trkpt>
      <trkpt lat="49.91397" lon="0.99133">
        <ele>74</ele>
        <time>2022-06-17T12:22:52+02:00</time>
      </trkpt>
      <trkpt lat="49.91376" lon="0.99151">
        <ele>76</ele>
        <time>2022-06-17T12:23:13+02:00</time>
      </trkpt>
      <trkpt lat="49.91354" lon="0.99166">
        <ele>77</ele>
        <time>2022-06-17T12:23:32+02:00</time>
      </trkpt>
      <trkpt lat="49.91342" lon="0.99195">
        <ele>78</ele>
        <time>2022-06-17T12:23:52+02:00</time>
      </trkpt>
      <trkpt lat="49.91321" lon="0.99208">
        <ele>79</ele>
        <time>2022-06-17T12:24:12+02:00</time>
      </trkpt>
      <trkpt lat="49.913" lon="0.99226">
        <ele>80</ele>
        <time>2022-06-17T12:24:29+02:00</time>
      </trkpt>
      <trkpt lat="49.91279" lon="0.99238">
        <ele>80</ele>
        <time>2022-06-17T12:24:53+02:00</time>
      </trkpt>
      <trkpt lat="49.91265" lon="0.99266">
        <ele>80</ele>
        <time>2022-06-17T12:25:13+02:00</time>
      </trkpt>
      <trkpt lat="49.91248" lon="0.9929">
        <ele>80</ele>
        <time>2022-06-17T12:25:33+02:00</time>
      </trkpt>
      <trkpt lat="49.91225" lon="0.99287">
        <ele>81</ele>
        <time>2022-06-17T12:25:55+02:00</time>
      </trkpt>
      <trkpt lat="49.91203" lon="0.99298">
        <ele>81</ele>
        <time>2022-06-17T12:26:16+02:00</time>
      </trkpt>
      <trkpt lat="49.91182" lon="0.99311">
        <ele>82</ele>
        <time>2022-06-17T12:26:38+02:00</time>
      </trkpt>
      <trkpt lat="49.91181" lon="0.99347">
        <ele>83</ele>
        <time>2022-06-17T12:27:04+02:00</time>
      </trkpt>
      <trkpt lat="49.91201" lon="0.99365">
        <ele>84</ele>
        <time>2022-06-17T12:27:27+02:00</time>
      </trkpt>
      <trkpt lat="49.91217" lon="0.9939">
        <ele>86</ele>
        <time>2022-06-17T12:27:52+02:00</time>
      </trkpt>
      <trkpt lat="49.91238" lon="0.99407">
        <ele>87</ele>
        <time>2022-06-17T12:28:15+02:00</time>
      </trkpt>
      <trkpt lat="49.91257" lon="0.99425">
        <ele>89</ele>
        <time>2022-06-17T12:28:36+02:00</time>
      </trkpt>
      <trkpt lat="49.91278" lon="0.99441">
        <ele>90</ele>
        <time>2022-06-17T12:28:50+02:00</time>
      </trkpt>
      <trkpt lat="49.91288" lon="0.99472">
        <ele>92</ele>
        <time>2022-06-17T12:29:05+02:00</time>
      </trkpt>
      <trkpt lat="49.91301" lon="0.99501">
        <ele>93</ele>
        <time>2022-06-17T12:29:22+02:00</time>
      </trkpt>
      <trkpt lat="49.91314" lon="0.99532">
        <ele>94</ele>
        <time>2022-06-17T12:29:43+02:00</time>
      </trkpt>
      <trkpt lat="49.9133" lon="0.99557">
        <ele>94</ele>
        <time>2022-06-17T12:29:58+02:00</time>
      </trkpt>
      <trkpt lat="49.91338" lon="0.99591">
        <ele>94</ele>
        <time>2022-06-17T12:30:14+02:00</time>
      </trkpt>
      <trkpt lat="49.91355" lon="0.99615">
        <ele>93</ele>
        <time>2022-06-17T12:30:32+02:00</time>
      </trkpt>
      <trkpt lat="49.91366" lon="0.99646">
        <ele>92</ele>
        <time>2022-06-17T12:30:48+02:00</time>
      </trkpt>
      <trkpt lat="49.91382" lon="0.9967">
        <ele>91</ele>
        <time>2022-06-17T12:31:06+02:00</time>
      </trkpt>
      <trkpt lat="49.91392" lon="0.99703">
        <ele>90</ele>
        <time>2022-06-17T12:31:24+02:00</time>
      </trkpt>
      <trkpt lat="49.91402" lon="0.99735">
        <ele>90</ele>
        <time>2022-06-17T12:31:40+02:00</time>
      </trkpt>
      <trkpt lat="49.91411" lon="0.99769">
        <ele>90</ele>
        <time>2022-06-17T12:31:57+02:00</time>
      </trkpt>
      <trkpt lat="49.91417" lon="0.99803">
        <ele>91</ele>
        <time>2022-06-17T12:32:33+02:00</time>
      </trkpt>
      <trkpt lat="49.91426" lon="0.99839">
        <ele>92</ele>
        <time>2022-06-17T12:32:56+02:00</time>
      </trkpt>
      <trkpt lat="49.91435" lon="0.99871">
        <ele>92</ele>
        <time>2022-06-17T12:33:10+02:00</time>
      </trkpt>
      <trkpt lat="49.91446" lon="0.99905">
        <ele>92</ele>
        <time>2022-06-17T12:33:24+02:00</time>
      </trkpt>
      <trkpt lat="49.91453" lon="0.99939">
        <ele>91</ele>
        <time>2022-06-17T12:33:44+02:00</time>
      </trkpt>
      <trkpt lat="49.91462" lon="0.99972">
        <ele>89</ele>
        <time>2022-06-17T12:34:03+02:00</time>
      </trkpt>
      <trkpt lat="49.91472" lon="1.00005">
        <ele>87</ele>
        <time>2022-06-17T12:34:17+02:00</time>
      </trkpt>
      <trkpt lat="49.91485" lon="1.00036">
        <ele>87</ele>
        <time>2022-06-17T12:34:33+02:00</time>
      </trkpt>
      <trkpt lat="49.91491" lon="1.00069">
        <ele>86</ele>
        <time>2022-06-17T12:34:54+02:00</time>
      </trkpt>
      <trkpt lat="49.915" lon="1.00101">
        <ele>85</ele>
        <time>2022-06-17T12:36:26+02:00</time>
      </trkpt>
      <trkpt lat="49.91491" lon="1.00136">
        <ele>82</ele>
        <time>2022-06-17T12:36:45+02:00</time>
      </trkpt>
      <trkpt lat="49.91504" lon="1.00165">
        <ele>81</ele>
        <time>2022-06-17T12:37:02+02:00</time>
      </trkpt>
      <trkpt lat="49.91511" lon="1.002">
        <ele>79</ele>
        <time>2022-06-17T12:37:18+02:00</time>
      </trkpt>
      <trkpt lat="49.91519" lon="1.00234">
        <ele>77</ele>
        <time>2022-06-17T12:37:41+02:00</time>
      </trkpt>
      <trkpt lat="49.91516" lon="1.00271">
        <ele>74</ele>
        <time>2022-06-17T12:38:00+02:00</time>
      </trkpt>
      <trkpt lat="49.91511" lon="1.00305">
        <ele>70</ele>
        <time>2022-06-17T12:38:32+02:00</time>
      </trkpt>
      <trkpt lat="49.91511" lon="1.00342">
        <ele>66</ele>
        <time>2022-06-17T12:39:26+02:00</time>
      </trkpt>
      <trkpt lat="49.91508" lon="1.00377">
        <ele>62</ele>
        <time>2022-06-17T12:39:49+02:00</time>
      </trkpt>
      <trkpt lat="49.9151" lon="1.00412">
        <ele>58</ele>
        <time>2022-06-17T12:40:08+02:00</time>
      </trkpt>
      <trkpt lat="49.91508" lon="1.00449">
        <ele>54</ele>
        <time>2022-06-17T12:40:26+02:00</time>
      </trkpt>
      <trkpt lat="49.91503" lon="1.00483">
        <ele>51</ele>
        <time>2022-06-17T12:41:31+02:00</time>
      </trkpt>
      <trkpt lat="49.91505" lon="1.00519">
        <ele>47</ele>
        <time>2022-06-17T12:41:49+02:00</time>
      </trkpt>
      <trkpt lat="49.91507" lon="1.00555">
        <ele>44</ele>
        <time>2022-06-17T12:42:09+02:00</time>
      </trkpt>
      <trkpt lat="49.91514" lon="1.00625">
        <ele>40</ele>
        <time>2022-06-17T12:42:40+02:00</time>
      </trkpt>
      <trkpt lat="49.91526" lon="1.00656">
        <ele>39</ele>
        <time>2022-06-17T12:43:00+02:00</time>
      </trkpt>
      <trkpt lat="49.91538" lon="1.00685">
        <ele>36</ele>
        <time>2022-06-17T12:43:24+02:00</time>
      </trkpt>
      <trkpt lat="49.91559" lon="1.00701">
        <ele>34</ele>
        <time>2022-06-17T12:44:23+02:00</time>
      </trkpt>
      <trkpt lat="49.91579" lon="1.00719">
        <ele>31</ele>
        <time>2022-06-17T12:44:39+02:00</time>
      </trkpt>
      <trkpt lat="49.916" lon="1.00735">
        <ele>25</ele>
        <time>2022-06-17T12:45:02+02:00</time>
      </trkpt>
      <trkpt lat="49.91623" lon="1.00744">
        <ele>19</ele>
        <time>2022-06-17T12:45:22+02:00</time>
      </trkpt>
      <trkpt lat="49.91604" lon="1.00776">
        <ele>24</ele>
        <time>2022-06-17T14:28:20+02:00</time>
      </trkpt>
      <trkpt lat="49.91581" lon="1.00782">
        <ele>30</ele>
        <time>2022-06-17T14:28:42+02:00</time>
      </trkpt>
      <trkpt lat="49.91558" lon="1.00789">
        <ele>32</ele>
        <time>2022-06-17T14:29:06+02:00</time>
      </trkpt>
      <trkpt lat="49.91535" lon="1.00791">
        <ele>34</ele>
        <time>2022-06-17T14:29:25+02:00</time>
      </trkpt>
      <trkpt lat="49.91515" lon="1.00807">
        <ele>36</ele>
        <time>2022-06-17T14:29:49+02:00</time>
      </trkpt>
      <trkpt lat="49.91492" lon="1.00804">
        <ele>37</ele>
        <time>2022-06-17T14:30:15+02:00</time>
      </trkpt>
      <trkpt lat="49.91468" lon="1.00804">
        <ele>38</ele>
        <time>2022-06-17T14:30:33+02:00</time>
      </trkpt>
      <trkpt lat="49.91445" lon="1.00804">
        <ele>39</ele>
        <time>2022-06-17T14:30:52+02:00</time>
      </trkpt>
      <trkpt lat="49.91422" lon="1.00808">
        <ele>40</ele>
        <time>2022-06-17T14:31:09+02:00</time>
      </trkpt>
      <trkpt lat="49.91398" lon="1.00811">
        <ele>42</ele>
        <time>2022-06-17T14:31:39+02:00</time>
      </trkpt>
      <trkpt lat="49.91375" lon="1.00807">
        <ele>44</ele>
        <time>2022-06-17T14:32:05+02:00</time>
      </trkpt>
      <trkpt lat="49.91352" lon="1.00811">
        <ele>46</ele>
        <time>2022-06-17T14:32:22+02:00</time>
      </trkpt>
      <trkpt lat="49.91354" lon="1.00846">
        <ele>47</ele>
        <time>2022-06-17T14:32:38+02:00</time>
      </trkpt>
      <trkpt lat="49.91343" lon="1.00877">
        <ele>50</ele>
        <time>2022-06-17T14:33:00+02:00</time>
      </trkpt>
      <trkpt lat="49.91327" lon="1.00903">
        <ele>53</ele>
        <time>2022-06-17T14:33:17+02:00</time>
      </trkpt>
      <trkpt lat="49.91308" lon="1.00924">
        <ele>57</ele>
        <time>2022-06-17T14:33:32+02:00</time>
      </trkpt>
      <trkpt lat="49.91295" lon="1.00952">
        <ele>60</ele>
        <time>2022-06-17T14:33:55+02:00</time>
      </trkpt>
      <trkpt lat="49.91278" lon="1.00976">
        <ele>63</ele>
        <time>2022-06-17T14:34:21+02:00</time>
      </trkpt>
      <trkpt lat="49.9126" lon="1.00998">
        <ele>65</ele>
        <time>2022-06-17T14:34:45+02:00</time>
      </trkpt>
      <trkpt lat="49.91243" lon="1.01022">
        <ele>67</ele>
        <time>2022-06-17T14:35:03+02:00</time>
      </trkpt>
      <trkpt lat="49.91227" lon="1.01049">
        <ele>70</ele>
        <time>2022-06-17T14:35:25+02:00</time>
      </trkpt>
      <trkpt lat="49.91214" lon="1.01077">
        <ele>72</ele>
        <time>2022-06-17T14:35:43+02:00</time>
      </trkpt>
      <trkpt lat="49.91196" lon="1.011">
        <ele>75</ele>
        <time>2022-06-17T14:36:06+02:00</time>
      </trkpt>
      <trkpt lat="49.91176" lon="1.01117">
        <ele>76</ele>
        <time>2022-06-17T14:36:22+02:00</time>
      </trkpt>
      <trkpt lat="49.91158" lon="1.01139">
        <ele>77</ele>
        <time>2022-06-17T14:36:43+02:00</time>
      </trkpt>
      <trkpt lat="49.91136" lon="1.01155">
        <ele>79</ele>
        <time>2022-06-17T14:37:07+02:00</time>
      </trkpt>
      <trkpt lat="49.91115" lon="1.01172">
        <ele>81</ele>
        <time>2022-06-17T14:37:27+02:00</time>
      </trkpt>
      <trkpt lat="49.91099" lon="1.01196">
        <ele>81</ele>
        <time>2022-06-17T14:37:49+02:00</time>
      </trkpt>
      <trkpt lat="49.91076" lon="1.01207">
        <ele>82</ele>
        <time>2022-06-17T14:38:07+02:00</time>
      </trkpt>
      <trkpt lat="49.91066" lon="1.01241">
        <ele>79</ele>
        <time>2022-06-17T14:38:41+02:00</time>
      </trkpt>
      <trkpt lat="49.91061" lon="1.01276">
        <ele>79</ele>
        <time>2022-06-17T14:38:56+02:00</time>
      </trkpt>
      <trkpt lat="49.9106" lon="1.01312">
        <ele>80</ele>
        <time>2022-06-17T14:39:19+02:00</time>
      </trkpt>
      <trkpt lat="49.91052" lon="1.01346">
        <ele>81</ele>
        <time>2022-06-17T14:39:40+02:00</time>
      </trkpt>
      <trkpt lat="49.91029" lon="1.01342">
        <ele>80</ele>
        <time>2022-06-17T14:40:11+02:00</time>
      </trkpt>
      <trkpt lat="49.91008" lon="1.01328">
        <ele>80</ele>
        <time>2022-06-17T14:40:31+02:00</time>
      </trkpt>
      <trkpt lat="49.90965" lon="1.01301">
        <ele>81</ele>
        <time>2022-06-17T14:41:11+02:00</time>
      </trkpt>
      <trkpt lat="49.90943" lon="1.01292">
        <ele>82</ele>
        <time>2022-06-17T14:41:29+02:00</time>
      </trkpt>
      <trkpt lat="49.90922" lon="1.01275">
        <ele>83</ele>
        <time>2022-06-17T14:41:52+02:00</time>
      </trkpt>
      <trkpt lat="49.90901" lon="1.01263">
        <ele>84</ele>
        <time>2022-06-17T14:42:11+02:00</time>
      </trkpt>
      <trkpt lat="49.90881" lon="1.01242">
        <ele>86</ele>
        <time>2022-06-17T14:42:29+02:00</time>
      </trkpt>
      <trkpt lat="49.90866" lon="1.01217">
        <ele>87</ele>
        <time>2022-06-17T14:42:51+02:00</time>
      </trkpt>
      <trkpt lat="49.90846" lon="1.012">
        <ele>89</ele>
        <time>2022-06-17T14:43:06+02:00</time>
      </trkpt>
      <trkpt lat="49.9083" lon="1.01173">
        <ele>91</ele>
        <time>2022-06-17T14:43:22+02:00</time>
      </trkpt>
      <trkpt lat="49.90809" lon="1.01157">
        <ele>91</ele>
        <time>2022-06-17T14:43:40+02:00</time>
      </trkpt>
      <trkpt lat="49.90792" lon="1.01133">
        <ele>92</ele>
        <time>2022-06-17T14:44:00+02:00</time>
      </trkpt>
      <trkpt lat="49.90774" lon="1.01111">
        <ele>93</ele>
        <time>2022-06-17T14:44:18+02:00</time>
      </trkpt>
      <trkpt lat="49.90758" lon="1.01086">
        <ele>95</ele>
        <time>2022-06-17T14:44:37+02:00</time>
      </trkpt>
      <trkpt lat="49.90736" lon="1.01079">
        <ele>95</ele>
        <time>2022-06-17T14:44:52+02:00</time>
      </trkpt>
      <trkpt lat="49.90718" lon="1.01056">
        <ele>95</ele>
        <time>2022-06-17T14:45:11+02:00</time>
      </trkpt>
      <trkpt lat="49.90699" lon="1.01037">
        <ele>95</ele>
        <time>2022-06-17T14:45:29+02:00</time>
      </trkpt>
      <trkpt lat="49.90678" lon="1.01022">
        <ele>95</ele>
        <time>2022-06-17T14:45:50+02:00</time>
      </trkpt>
      <trkpt lat="49.90657" lon="1.01009">
        <ele>95</ele>
        <time>2022-06-17T14:46:07+02:00</time>
      </trkpt>
      <trkpt lat="49.90634" lon="1.01008">
        <ele>94</ele>
        <time>2022-06-17T14:46:20+02:00</time>
      </trkpt>
      <trkpt lat="49.90612" lon="1.01014">
        <ele>94</ele>
        <time>2022-06-17T14:46:39+02:00</time>
      </trkpt>
      <trkpt lat="49.9059" lon="1.01023">
        <ele>94</ele>
        <time>2022-06-17T14:46:54+02:00</time>
      </trkpt>
      <trkpt lat="49.9057" lon="1.01042">
        <ele>95</ele>
        <time>2022-06-17T14:47:18+02:00</time>
      </trkpt>
      <trkpt lat="49.90556" lon="1.0107">
        <ele>96</ele>
        <time>2022-06-17T14:47:34+02:00</time>
      </trkpt>
      <trkpt lat="49.90552" lon="1.01105">
        <ele>95</ele>
        <time>2022-06-17T14:47:54+02:00</time>
      </trkpt>
      <trkpt lat="49.90538" lon="1.01134">
        <ele>95</ele>
        <time>2022-06-17T14:48:08+02:00</time>
      </trkpt>
      <trkpt lat="49.90529" lon="1.01166">
        <ele>95</ele>
        <time>2022-06-17T14:48:28+02:00</time>
      </trkpt>
      <trkpt lat="49.90517" lon="1.01199">
        <ele>96</ele>
        <time>2022-06-17T14:48:46+02:00</time>
      </trkpt>
      <trkpt lat="49.90509" lon="1.01236">
        <ele>96</ele>
        <time>2022-06-17T14:49:09+02:00</time>
      </trkpt>
      <trkpt lat="49.90499" lon="1.01269">
        <ele>97</ele>
        <time>2022-06-17T14:49:25+02:00</time>
      </trkpt>
      <trkpt lat="49.90498" lon="1.01305">
        <ele>98</ele>
        <time>2022-06-17T14:49:44+02:00</time>
      </trkpt>
      <trkpt lat="49.90488" lon="1.01338">
        <ele>98</ele>
        <time>2022-06-17T14:50:02+02:00</time>
      </trkpt>
      <trkpt lat="49.90476" lon="1.01369">
        <ele>98</ele>
        <time>2022-06-17T14:50:21+02:00</time>
      </trkpt>
      <trkpt lat="49.90469" lon="1.01405">
        <ele>99</ele>
        <time>2022-06-17T14:50:41+02:00</time>
      </trkpt>
      <trkpt lat="49.90465" lon="1.01439">
        <ele>99</ele>
        <time>2022-06-17T14:51:47+02:00</time>
      </trkpt>
      <trkpt lat="49.90474" lon="1.01474">
        <ele>98</ele>
        <time>2022-06-17T14:52:03+02:00</time>
      </trkpt>
      <trkpt lat="49.90486" lon="1.01503">
        <ele>97</ele>
        <time>2022-06-17T14:52:20+02:00</time>
      </trkpt>
      <trkpt lat="49.90504" lon="1.01525">
        <ele>95</ele>
        <time>2022-06-17T14:52:37+02:00</time>
      </trkpt>
      <trkpt lat="49.90514" lon="1.01559">
        <ele>93</ele>
        <time>2022-06-17T14:52:56+02:00</time>
      </trkpt>
      <trkpt lat="49.90519" lon="1.01596">
        <ele>92</ele>
        <time>2022-06-17T14:53:16+02:00</time>
      </trkpt>
      <trkpt lat="49.90522" lon="1.01631">
        <ele>91</ele>
        <time>2022-06-17T14:53:37+02:00</time>
      </trkpt>
      <trkpt lat="49.90534" lon="1.01662">
        <ele>89</ele>
        <time>2022-06-17T14:53:54+02:00</time>
      </trkpt>
      <trkpt lat="49.90546" lon="1.01692">
        <ele>87</ele>
        <time>2022-06-17T14:54:10+02:00</time>
      </trkpt>
      <trkpt lat="49.90554" lon="1.01727">
        <ele>85</ele>
        <time>2022-06-17T14:54:30+02:00</time>
      </trkpt>
      <trkpt lat="49.90559" lon="1.01761">
        <ele>84</ele>
        <time>2022-06-17T14:54:45+02:00</time>
      </trkpt>
      <trkpt lat="49.90563" lon="1.01797">
        <ele>84</ele>
        <time>2022-06-17T14:55:03+02:00</time>
      </trkpt>
      <trkpt lat="49.90572" lon="1.01829">
        <ele>82</ele>
        <time>2022-06-17T14:55:19+02:00</time>
      </trkpt>
      <trkpt lat="49.90578" lon="1.01865">
        <ele>82</ele>
        <time>2022-06-17T14:55:40+02:00</time>
      </trkpt>
      <trkpt lat="49.90582" lon="1.01899">
        <ele>83</ele>
        <time>2022-06-17T14:55:57+02:00</time>
      </trkpt>
      <trkpt lat="49.9059" lon="1.01933">
        <ele>83</ele>
        <time>2022-06-17T14:56:16+02:00</time>
      </trkpt>
      <trkpt lat="49.906" lon="1.01964">
        <ele>84</ele>
        <time>2022-06-17T14:56:34+02:00</time>
      </trkpt>
      <trkpt lat="49.90612" lon="1.01995">
        <ele>83</ele>
        <time>2022-06-17T14:56:53+02:00</time>
      </trkpt>
      <trkpt lat="49.90626" lon="1.02022">
        <ele>83</ele>
        <time>2022-06-17T14:57:09+02:00</time>
      </trkpt>
      <trkpt lat="49.90648" lon="1.02037">
        <ele>83</ele>
        <time>2022-06-17T14:57:27+02:00</time>
      </trkpt>
      <trkpt lat="49.90665" lon="1.02062">
        <ele>83</ele>
        <time>2022-06-17T14:57:45+02:00</time>
      </trkpt>
      <trkpt lat="49.90684" lon="1.02081">
        <ele>84</ele>
        <time>2022-06-17T14:58:04+02:00</time>
      </trkpt>
      <trkpt lat="49.90703" lon="1.02101">
        <ele>83</ele>
        <time>2022-06-17T14:58:17+02:00</time>
      </trkpt>
      <trkpt lat="49.90721" lon="1.02124">
        <ele>83</ele>
        <time>2022-06-17T14:58:34+02:00</time>
      </trkpt>
      <trkpt lat="49.90741" lon="1.02144">
        <ele>83</ele>
        <time>2022-06-17T14:58:54+02:00</time>
      </trkpt>
      <trkpt lat="49.90761" lon="1.0216">
        <ele>83</ele>
        <time>2022-06-17T14:59:10+02:00</time>
      </trkpt>
      <trkpt lat="49.90782" lon="1.02175">
        <ele>82</ele>
        <time>2022-06-17T14:59:29+02:00</time>
      </trkpt>
      <trkpt lat="49.90804" lon="1.02189">
        <ele>81</ele>
        <time>2022-06-17T14:59:46+02:00</time>
      </trkpt>
      <trkpt lat="49.90826" lon="1.02204">
        <ele>81</ele>
        <time>2022-06-17T15:00:01+02:00</time>
      </trkpt>
      <trkpt lat="49.90846" lon="1.02222">
        <ele>80</ele>
        <time>2022-06-17T15:00:20+02:00</time>
      </trkpt>
      <trkpt lat="49.90868" lon="1.02232">
        <ele>80</ele>
        <time>2022-06-17T15:00:38+02:00</time>
      </trkpt>
      <trkpt lat="49.90888" lon="1.02252">
        <ele>81</ele>
        <time>2022-06-17T15:00:56+02:00</time>
      </trkpt>
      <trkpt lat="49.9091" lon="1.02255">
        <ele>81</ele>
        <time>2022-06-17T15:01:13+02:00</time>
      </trkpt>
      <trkpt lat="49.90929" lon="1.02275">
        <ele>81</ele>
        <time>2022-06-17T15:01:29+02:00</time>
      </trkpt>
      <trkpt lat="49.90949" lon="1.02292">
        <ele>81</ele>
        <time>2022-06-17T15:01:46+02:00</time>
      </trkpt>
      <trkpt lat="49.90967" lon="1.02313">
        <ele>81</ele>
        <time>2022-06-17T15:02:08+02:00</time>
      </trkpt>
      <trkpt lat="49.90987" lon="1.02332">
        <ele>82</ele>
        <time>2022-06-17T15:02:28+02:00</time>
      </trkpt>
      <trkpt lat="49.91002" lon="1.02359">
        <ele>82</ele>
        <time>2022-06-17T15:02:44+02:00</time>
      </trkpt>
      <trkpt lat="49.91018" lon="1.02385">
        <ele>81</ele>
        <time>2022-06-17T15:02:57+02:00</time>
      </trkpt>
      <trkpt lat="49.91038" lon="1.02401">
        <ele>81</ele>
        <time>2022-06-17T15:03:17+02:00</time>
      </trkpt>
      <trkpt lat="49.91057" lon="1.02422">
        <ele>82</ele>
        <time>2022-06-17T15:03:34+02:00</time>
      </trkpt>
      <trkpt lat="49.91078" lon="1.02438">
        <ele>82</ele>
        <time>2022-06-17T15:03:54+02:00</time>
      </trkpt>
      <trkpt lat="49.91099" lon="1.02451">
        <ele>82</ele>
        <time>2022-06-17T15:04:13+02:00</time>
      </trkpt>
      <trkpt lat="49.91119" lon="1.02472">
        <ele>81</ele>
        <time>2022-06-17T15:04:29+02:00</time>
      </trkpt>
      <trkpt lat="49.91141" lon="1.02484">
        <ele>80</ele>
        <time>2022-06-17T15:04:48+02:00</time>
      </trkpt>
      <trkpt lat="49.91162" lon="1.02501">
        <ele>78</ele>
        <time>2022-06-17T15:05:06+02:00</time>
      </trkpt>
      <trkpt lat="49.91179" lon="1.02526">
        <ele>78</ele>
        <time>2022-06-17T15:05:49+02:00</time>
      </trkpt>
      <trkpt lat="49.91214" lon="1.0257">
        <ele>74</ele>
        <time>2022-06-17T15:06:26+02:00</time>
      </trkpt>
      <trkpt lat="49.9123" lon="1.02598">
        <ele>72</ele>
        <time>2022-06-17T15:06:44+02:00</time>
      </trkpt>
      <trkpt lat="49.9125" lon="1.02615">
        <ele>69</ele>
        <time>2022-06-17T15:07:06+02:00</time>
      </trkpt>
      <trkpt lat="49.91271" lon="1.02629">
        <ele>67</ele>
        <time>2022-06-17T15:07:31+02:00</time>
      </trkpt>
      <trkpt lat="49.91292" lon="1.02643">
        <ele>64</ele>
        <time>2022-06-17T15:07:46+02:00</time>
      </trkpt>
      <trkpt lat="49.91315" lon="1.02653">
        <ele>61</ele>
        <time>2022-06-17T15:08:04+02:00</time>
      </trkpt>
      <trkpt lat="49.91337" lon="1.02663">
        <ele>58</ele>
        <time>2022-06-17T15:08:23+02:00</time>
      </trkpt>
      <trkpt lat="49.91359" lon="1.02675">
        <ele>56</ele>
        <time>2022-06-17T15:08:41+02:00</time>
      </trkpt>
      <trkpt lat="49.91381" lon="1.0269">
        <ele>54</ele>
        <time>2022-06-17T15:09:00+02:00</time>
      </trkpt>
      <trkpt lat="49.91401" lon="1.02705">
        <ele>51</ele>
        <time>2022-06-17T15:09:19+02:00</time>
      </trkpt>
      <trkpt lat="49.91421" lon="1.02724">
        <ele>48</ele>
        <time>2022-06-17T15:09:38+02:00</time>
      </trkpt>
      <trkpt lat="49.91442" lon="1.0274">
        <ele>44</ele>
        <time>2022-06-17T15:09:56+02:00</time>
      </trkpt>
      <trkpt lat="49.91463" lon="1.02758">
        <ele>39</ele>
        <time>2022-06-17T15:10:17+02:00</time>
      </trkpt>
      <trkpt lat="49.91483" lon="1.02777">
        <ele>36</ele>
        <time>2022-06-17T15:10:38+02:00</time>
      </trkpt>
      <trkpt lat="49.915" lon="1.028">
        <ele>33</ele>
        <time>2022-06-17T15:10:55+02:00</time>
      </trkpt>
      <trkpt lat="49.91521" lon="1.02817">
        <ele>30</ele>
        <time>2022-06-17T15:11:15+02:00</time>
      </trkpt>
      <trkpt lat="49.91538" lon="1.02842">
        <ele>26</ele>
        <time>2022-06-17T15:11:34+02:00</time>
      </trkpt>
      <trkpt lat="49.91557" lon="1.02861">
        <ele>21</ele>
        <time>2022-06-17T15:11:51+02:00</time>
      </trkpt>
      <trkpt lat="49.91577" lon="1.02879">
        <ele>16</ele>
        <time>2022-06-17T15:12:12+02:00</time>
      </trkpt>
      <trkpt lat="49.91596" lon="1.02861">
        <ele>14</ele>
        <time>2022-06-17T15:12:38+02:00</time>
      </trkpt>
      <trkpt lat="49.91614" lon="1.0284">
        <ele>14</ele>
        <time>2022-06-17T15:13:00+02:00</time>
      </trkpt>
      <trkpt lat="49.91645" lon="1.02791">
        <ele>11</ele>
        <time>2022-06-17T15:37:36+02:00</time>
      </trkpt>
      <trkpt lat="49.91667" lon="1.02783">
        <ele>7</ele>
        <time>2022-06-17T15:37:59+02:00</time>
      </trkpt>
      <trkpt lat="49.91688" lon="1.02795">
        <ele>5</ele>
        <time>2022-06-17T15:38:40+02:00</time>
      </trkpt>
      <trkpt lat="49.91699" lon="1.02826">
        <ele>5</ele>
        <time>2022-06-17T15:39:04+02:00</time>
      </trkpt>
      <trkpt lat="49.91704" lon="1.0286">
        <ele>5</ele>
        <time>2022-06-17T15:39:22+02:00</time>
      </trkpt>
      <trkpt lat="49.9171" lon="1.02894">
        <ele>5</ele>
        <time>2022-06-17T15:39:43+02:00</time>
      </trkpt>
      <trkpt lat="49.91717" lon="1.02929">
        <ele>4</ele>
        <time>2022-06-17T15:40:00+02:00</time>
      </trkpt>
      <trkpt lat="49.91725" lon="1.02961">
        <ele>4</ele>
        <time>2022-06-17T15:40:22+02:00</time>
      </trkpt>
      <trkpt lat="49.91735" lon="1.02994">
        <ele>4</ele>
        <time>2022-06-17T15:40:48+02:00</time>
      </trkpt>
      <trkpt lat="49.91741" lon="1.03028">
        <ele>4</ele>
        <time>2022-06-17T15:41:08+02:00</time>
      </trkpt>
      <trkpt lat="49.91748" lon="1.03062">
        <ele>5</ele>
        <time>2022-06-17T15:41:29+02:00</time>
      </trkpt>
      <trkpt lat="49.91761" lon="1.03091">
        <ele>5</ele>
        <time>2022-06-17T15:42:32+02:00</time>
      </trkpt>
      <trkpt lat="49.91773" lon="1.03122">
        <ele>4</ele>
        <time>2022-06-17T15:42:56+02:00</time>
      </trkpt>
      <trkpt lat="49.9179" lon="1.03184">
        <ele>3</ele>
        <time>2022-06-17T15:45:17+02:00</time>
      </trkpt>
      <trkpt lat="49.9179" lon="1.03219">
        <ele>3</ele>
        <time>2022-06-17T15:45:39+02:00</time>
      </trkpt>
      <trkpt lat="49.918" lon="1.03252">
        <ele>2</ele>
        <time>2022-06-17T15:46:04+02:00</time>
      </trkpt>
      <trkpt lat="49.91807" lon="1.03286">
        <ele>3</ele>
        <time>2022-06-17T15:46:27+02:00</time>
      </trkpt>
      <trkpt lat="49.91814" lon="1.03319">
        <ele>4</ele>
        <time>2022-06-17T15:46:47+02:00</time>
      </trkpt>
      <trkpt lat="49.91825" lon="1.03351">
        <ele>4</ele>
        <time>2022-06-17T15:47:09+02:00</time>
      </trkpt>
      <trkpt lat="49.91832" lon="1.03385">
        <ele>5</ele>
        <time>2022-06-17T15:47:33+02:00</time>
      </trkpt>
      <trkpt lat="49.91839" lon="1.03419">
        <ele>5</ele>
        <time>2022-06-17T15:47:52+02:00</time>
      </trkpt>
      <trkpt lat="49.91846" lon="1.03454">
        <ele>5</ele>
        <time>2022-06-17T15:48:14+02:00</time>
      </trkpt>
      <trkpt lat="49.91853" lon="1.03488">
        <ele>4</ele>
        <time>2022-06-17T15:48:38+02:00</time>
      </trkpt>
      <trkpt lat="49.91841" lon="1.03518">
        <ele>6</ele>
        <time>2022-06-17T15:50:47+02:00</time>
      </trkpt>
      <trkpt lat="49.91817" lon="1.03578">
        <ele>9</ele>
        <time>2022-06-17T15:51:32+02:00</time>
      </trkpt>
      <trkpt lat="49.91808" lon="1.0361">
        <ele>10</ele>
        <time>2022-06-17T15:52:05+02:00</time>
      </trkpt>
      <trkpt lat="49.91813" lon="1.03645">
        <ele>13</ele>
        <time>2022-06-17T15:53:02+02:00</time>
      </trkpt>
      <trkpt lat="49.91798" lon="1.03673">
        <ele>15</ele>
        <time>2022-06-17T15:53:25+02:00</time>
      </trkpt>
      <trkpt lat="49.91782" lon="1.03697">
        <ele>15</ele>
        <time>2022-06-17T15:53:48+02:00</time>
      </trkpt>
      <trkpt lat="49.91774" lon="1.03731">
        <ele>17</ele>
        <time>2022-06-17T15:54:10+02:00</time>
      </trkpt>
      <trkpt lat="49.91777" lon="1.03767">
        <ele>21</ele>
        <time>2022-06-17T15:54:31+02:00</time>
      </trkpt>
      <trkpt lat="49.91778" lon="1.03804">
        <ele>27</ele>
        <time>2022-06-17T15:54:53+02:00</time>
      </trkpt>
      <trkpt lat="49.91787" lon="1.03837">
        <ele>31</ele>
        <time>2022-06-17T15:55:18+02:00</time>
      </trkpt>
      <trkpt lat="49.91786" lon="1.03872">
        <ele>35</ele>
        <time>2022-06-17T15:55:36+02:00</time>
      </trkpt>
      <trkpt lat="49.91793" lon="1.03906">
        <ele>39</ele>
        <time>2022-06-17T15:56:02+02:00</time>
      </trkpt>
      <trkpt lat="49.91801" lon="1.03939">
        <ele>42</ele>
        <time>2022-06-17T15:56:31+02:00</time>
      </trkpt>
      <trkpt lat="49.91801" lon="1.03976">
        <ele>44</ele>
        <time>2022-06-17T15:56:54+02:00</time>
      </trkpt>
      <trkpt lat="49.91796" lon="1.04011">
        <ele>45</ele>
        <time>2022-06-17T15:57:17+02:00</time>
      </trkpt>
      <trkpt lat="49.91796" lon="1.04046">
        <ele>46</ele>
        <time>2022-06-17T15:57:37+02:00</time>
      </trkpt>
      <trkpt lat="49.91802" lon="1.0408">
        <ele>47</ele>
        <time>2022-06-17T15:58:01+02:00</time>
      </trkpt>
      <trkpt lat="49.91802" lon="1.04117">
        <ele>49</ele>
        <time>2022-06-17T15:58:20+02:00</time>
      </trkpt>
      <trkpt lat="49.91805" lon="1.04154">
        <ele>50</ele>
        <time>2022-06-17T15:58:40+02:00</time>
      </trkpt>
      <trkpt lat="49.91829" lon="1.04157">
        <ele>53</ele>
        <time>2022-06-17T15:59:16+02:00</time>
      </trkpt>
      <trkpt lat="49.91846" lon="1.04135">
        <ele>54</ele>
        <time>2022-06-17T15:59:43+02:00</time>
      </trkpt>
      <trkpt lat="49.91863" lon="1.0411">
        <ele>54</ele>
        <time>2022-06-17T16:00:06+02:00</time>
      </trkpt>
      <trkpt lat="49.91879" lon="1.04085">
        <ele>54</ele>
        <time>2022-06-17T16:00:27+02:00</time>
      </trkpt>
      <trkpt lat="49.91897" lon="1.04064">
        <ele>54</ele>
        <time>2022-06-17T16:00:47+02:00</time>
      </trkpt>
      <trkpt lat="49.91918" lon="1.04049">
        <ele>55</ele>
        <time>2022-06-17T16:01:09+02:00</time>
      </trkpt>
      <trkpt lat="49.91941" lon="1.04054">
        <ele>53</ele>
        <time>2022-06-17T16:01:34+02:00</time>
      </trkpt>
      <trkpt lat="49.91932" lon="1.04087">
        <ele>57</ele>
        <time>2022-06-17T16:04:45+02:00</time>
      </trkpt>
      <trkpt lat="49.91916" lon="1.04111">
        <ele>60</ele>
        <time>2022-06-17T16:05:05+02:00</time>
      </trkpt>
      <trkpt lat="49.91901" lon="1.04138">
        <ele>61</ele>
        <time>2022-06-17T16:05:25+02:00</time>
      </trkpt>
      <trkpt lat="49.91884" lon="1.04162">
        <ele>61</ele>
        <time>2022-06-17T16:05:47+02:00</time>
      </trkpt>
      <trkpt lat="49.91879" lon="1.04197">
        <ele>62</ele>
        <time>2022-06-17T16:06:08+02:00</time>
      </trkpt>
      <trkpt lat="49.91877" lon="1.04232">
        <ele>64</ele>
        <time>2022-06-17T16:06:28+02:00</time>
      </trkpt>
      <trkpt lat="49.91879" lon="1.0427">
        <ele>66</ele>
        <time>2022-06-17T16:06:49+02:00</time>
      </trkpt>
      <trkpt lat="49.91888" lon="1.04302">
        <ele>67</ele>
        <time>2022-06-17T16:07:12+02:00</time>
      </trkpt>
      <trkpt lat="49.91899" lon="1.04334">
        <ele>69</ele>
        <time>2022-06-17T16:07:34+02:00</time>
      </trkpt>
      <trkpt lat="49.9191" lon="1.04366">
        <ele>70</ele>
        <time>2022-06-17T16:07:52+02:00</time>
      </trkpt>
      <trkpt lat="49.91926" lon="1.04392">
        <ele>71</ele>
        <time>2022-06-17T16:08:14+02:00</time>
      </trkpt>
      <trkpt lat="49.91935" lon="1.04424">
        <ele>71</ele>
        <time>2022-06-17T16:08:37+02:00</time>
      </trkpt>
      <trkpt lat="49.91953" lon="1.04447">
        <ele>73</ele>
        <time>2022-06-17T16:09:02+02:00</time>
      </trkpt>
      <trkpt lat="49.91964" lon="1.04478">
        <ele>73</ele>
        <time>2022-06-17T16:09:25+02:00</time>
      </trkpt>
      <trkpt lat="49.91976" lon="1.04508">
        <ele>75</ele>
        <time>2022-06-17T16:09:48+02:00</time>
      </trkpt>
      <trkpt lat="49.91993" lon="1.04534">
        <ele>77</ele>
        <time>2022-06-17T16:10:13+02:00</time>
      </trkpt>
      <trkpt lat="49.92006" lon="1.04564">
        <ele>78</ele>
        <time>2022-06-17T16:10:32+02:00</time>
      </trkpt>
      <trkpt lat="49.92014" lon="1.04597">
        <ele>79</ele>
        <time>2022-06-17T16:10:52+02:00</time>
      </trkpt>
      <trkpt lat="49.92014" lon="1.04633">
        <ele>81</ele>
        <time>2022-06-17T16:11:12+02:00</time>
      </trkpt>
      <trkpt lat="49.92009" lon="1.04668">
        <ele>83</ele>
        <time>2022-06-17T16:11:47+02:00</time>
      </trkpt>
      <trkpt lat="49.92006" lon="1.04704">
        <ele>84</ele>
        <time>2022-06-17T16:12:09+02:00</time>
      </trkpt>
      <trkpt lat="49.92011" lon="1.04739">
        <ele>85</ele>
        <time>2022-06-17T16:12:31+02:00</time>
      </trkpt>
      <trkpt lat="49.92013" lon="1.04776">
        <ele>87</ele>
        <time>2022-06-17T16:12:49+02:00</time>
      </trkpt>
      <trkpt lat="49.92017" lon="1.04811">
        <ele>88</ele>
        <time>2022-06-17T16:13:08+02:00</time>
      </trkpt>
      <trkpt lat="49.92021" lon="1.04846">
        <ele>89</ele>
        <time>2022-06-17T16:13:29+02:00</time>
      </trkpt>
      <trkpt lat="49.92022" lon="1.04883">
        <ele>89</ele>
        <time>2022-06-17T16:14:26+02:00</time>
      </trkpt>
      <trkpt lat="49.92024" lon="1.04921">
        <ele>89</ele>
        <time>2022-06-17T16:14:46+02:00</time>
      </trkpt>
      <trkpt lat="49.92032" lon="1.0499">
        <ele>88</ele>
        <time>2022-06-17T16:15:23+02:00</time>
      </trkpt>
      <trkpt lat="49.92034" lon="1.05026">
        <ele>88</ele>
        <time>2022-06-17T16:15:38+02:00</time>
      </trkpt>
      <trkpt lat="49.92036" lon="1.05061">
        <ele>87</ele>
        <time>2022-06-17T16:16:00+02:00</time>
      </trkpt>
      <trkpt lat="49.92038" lon="1.05097">
        <ele>87</ele>
        <time>2022-06-17T16:16:19+02:00</time>
      </trkpt>
      <trkpt lat="49.92042" lon="1.05131">
        <ele>86</ele>
        <time>2022-06-17T16:16:36+02:00</time>
      </trkpt>
      <trkpt lat="49.92045" lon="1.05169">
        <ele>85</ele>
        <time>2022-06-17T16:16:53+02:00</time>
      </trkpt>
      <trkpt lat="49.92052" lon="1.05202">
        <ele>85</ele>
        <time>2022-06-17T16:17:11+02:00</time>
      </trkpt>
      <trkpt lat="49.92061" lon="1.05235">
        <ele>85</ele>
        <time>2022-06-17T16:17:30+02:00</time>
      </trkpt>
      <trkpt lat="49.9207" lon="1.05268">
        <ele>85</ele>
        <time>2022-06-17T16:17:51+02:00</time>
      </trkpt>
      <trkpt lat="49.92076" lon="1.05302">
        <ele>85</ele>
        <time>2022-06-17T16:18:12+02:00</time>
      </trkpt>
      <trkpt lat="49.92077" lon="1.05338">
        <ele>85</ele>
        <time>2022-06-17T16:18:33+02:00</time>
      </trkpt>
      <trkpt lat="49.92078" lon="1.05375">
        <ele>85</ele>
        <time>2022-06-17T16:18:54+02:00</time>
      </trkpt>
      <trkpt lat="49.9208" lon="1.05411">
        <ele>86</ele>
        <time>2022-06-17T16:19:11+02:00</time>
      </trkpt>
      <trkpt lat="49.92086" lon="1.05446">
        <ele>86</ele>
        <time>2022-06-17T16:19:31+02:00</time>
      </trkpt>
      <trkpt lat="49.92094" lon="1.0548">
        <ele>86</ele>
        <time>2022-06-17T16:19:47+02:00</time>
      </trkpt>
      <trkpt lat="49.92105" lon="1.05513">
        <ele>86</ele>
        <time>2022-06-17T16:20:10+02:00</time>
      </trkpt>
      <trkpt lat="49.92112" lon="1.05548">
        <ele>86</ele>
        <time>2022-06-17T16:20:30+02:00</time>
      </trkpt>
      <trkpt lat="49.92121" lon="1.05581">
        <ele>85</ele>
        <time>2022-06-17T16:20:51+02:00</time>
      </trkpt>
      <trkpt lat="49.92136" lon="1.05606">
        <ele>86</ele>
        <time>2022-06-17T16:21:17+02:00</time>
      </trkpt>
      <trkpt lat="49.92151" lon="1.05632">
        <ele>86</ele>
        <time>2022-06-17T16:21:35+02:00</time>
      </trkpt>
      <trkpt lat="49.92164" lon="1.05661">
        <ele>86</ele>
        <time>2022-06-17T16:21:53+02:00</time>
      </trkpt>
      <trkpt lat="49.92174" lon="1.05694">
        <ele>86</ele>
        <time>2022-06-17T16:22:13+02:00</time>
      </trkpt>
      <trkpt lat="49.92178" lon="1.05729">
        <ele>85</ele>
        <time>2022-06-17T16:22:36+02:00</time>
      </trkpt>
      <trkpt lat="49.92182" lon="1.05764">
        <ele>84</ele>
        <time>2022-06-17T16:22:55+02:00</time>
      </trkpt>
      <trkpt lat="49.92185" lon="1.05799">
        <ele>83</ele>
        <time>2022-06-17T16:23:15+02:00</time>
      </trkpt>
      <trkpt lat="49.9219" lon="1.05834">
        <ele>83</ele>
        <time>2022-06-17T16:23:33+02:00</time>
      </trkpt>
      <trkpt lat="49.922" lon="1.05867">
        <ele>82</ele>
        <time>2022-06-17T16:24:09+02:00</time>
      </trkpt>
      <trkpt lat="49.92196" lon="1.05903">
        <ele>80</ele>
        <time>2022-06-17T16:24:27+02:00</time>
      </trkpt>
      <trkpt lat="49.92193" lon="1.0594">
        <ele>79</ele>
        <time>2022-06-17T16:24:46+02:00</time>
      </trkpt>
      <trkpt lat="49.92198" lon="1.05976">
        <ele>78</ele>
        <time>2022-06-17T16:25:05+02:00</time>
      </trkpt>
      <trkpt lat="49.92214" lon="1.06002">
        <ele>78</ele>
        <time>2022-06-17T16:25:22+02:00</time>
      </trkpt>
      <trkpt lat="49.92231" lon="1.06026">
        <ele>78</ele>
        <time>2022-06-17T16:25:42+02:00</time>
      </trkpt>
      <trkpt lat="49.92251" lon="1.06043">
        <ele>78</ele>
        <time>2022-06-17T16:26:00+02:00</time>
      </trkpt>
      <trkpt lat="49.92272" lon="1.06059">
        <ele>78</ele>
        <time>2022-06-17T16:26:19+02:00</time>
      </trkpt>
      <trkpt lat="49.92292" lon="1.0608">
        <ele>78</ele>
        <time>2022-06-17T16:26:37+02:00</time>
      </trkpt>
      <trkpt lat="49.92306" lon="1.06109">
        <ele>77</ele>
        <time>2022-06-17T16:26:56+02:00</time>
      </trkpt>
      <trkpt lat="49.92317" lon="1.0614">
        <ele>76</ele>
        <time>2022-06-17T16:27:14+02:00</time>
      </trkpt>
      <trkpt lat="49.92335" lon="1.06204">
        <ele>74</ele>
        <time>2022-06-17T16:28:30+02:00</time>
      </trkpt>
      <trkpt lat="49.92345" lon="1.06236">
        <ele>73</ele>
        <time>2022-06-17T16:28:46+02:00</time>
      </trkpt>
      <trkpt lat="49.9235" lon="1.06271">
        <ele>71</ele>
        <time>2022-06-17T16:29:05+02:00</time>
      </trkpt>
      <trkpt lat="49.92364" lon="1.063">
        <ele>69</ele>
        <time>2022-06-17T16:29:24+02:00</time>
      </trkpt>
      <trkpt lat="49.92368" lon="1.06335">
        <ele>67</ele>
        <time>2022-06-17T16:29:43+02:00</time>
      </trkpt>
      <trkpt lat="49.92367" lon="1.06372">
        <ele>66</ele>
        <time>2022-06-17T16:30:02+02:00</time>
      </trkpt>
      <trkpt lat="49.92356" lon="1.06404">
        <ele>64</ele>
        <time>2022-06-17T16:30:21+02:00</time>
      </trkpt>
      <trkpt lat="49.92345" lon="1.06436">
        <ele>64</ele>
        <time>2022-06-17T16:30:43+02:00</time>
      </trkpt>
      <trkpt lat="49.92326" lon="1.06455">
        <ele>64</ele>
        <time>2022-06-17T16:31:00+02:00</time>
      </trkpt>
      <trkpt lat="49.92318" lon="1.06488">
        <ele>63</ele>
        <time>2022-06-17T16:31:17+02:00</time>
      </trkpt>
      <trkpt lat="49.92308" lon="1.06521">
        <ele>62</ele>
        <time>2022-06-17T16:31:38+02:00</time>
      </trkpt>
      <trkpt lat="49.92297" lon="1.06554">
        <ele>61</ele>
        <time>2022-06-17T16:31:58+02:00</time>
      </trkpt>
      <trkpt lat="49.92286" lon="1.06586">
        <ele>60</ele>
        <time>2022-06-17T16:32:17+02:00</time>
      </trkpt>
      <trkpt lat="49.92285" lon="1.06622">
        <ele>59</ele>
        <time>2022-06-17T16:33:10+02:00</time>
      </trkpt>
      <trkpt lat="49.92307" lon="1.06614">
        <ele>59</ele>
        <time>2022-06-17T16:33:30+02:00</time>
      </trkpt>
      <trkpt lat="49.92329" lon="1.06601">
        <ele>60</ele>
        <time>2022-06-17T16:33:48+02:00</time>
      </trkpt>
      <trkpt lat="49.9235" lon="1.06587">
        <ele>60</ele>
        <time>2022-06-17T16:34:04+02:00</time>
      </trkpt>
      <trkpt lat="49.92373" lon="1.06577">
        <ele>61</ele>
        <time>2022-06-17T16:34:25+02:00</time>
      </trkpt>
      <trkpt lat="49.92396" lon="1.06569">
        <ele>61</ele>
        <time>2022-06-17T16:34:42+02:00</time>
      </trkpt>
      <trkpt lat="49.92416" lon="1.06554">
        <ele>61</ele>
        <time>2022-06-17T16:35:00+02:00</time>
      </trkpt>
      <trkpt lat="49.9244" lon="1.06546">
        <ele>57</ele>
        <time>2022-06-17T16:35:20+02:00</time>
      </trkpt>
      <trkpt lat="49.92463" lon="1.06538">
        <ele>54</ele>
        <time>2022-06-17T16:35:42+02:00</time>
      </trkpt>
      <trkpt lat="49.92486" lon="1.06535">
        <ele>50</ele>
        <time>2022-06-17T16:36:02+02:00</time>
      </trkpt>
      <trkpt lat="49.925" lon="1.06563">
        <ele>47</ele>
        <time>2022-06-17T16:36:22+02:00</time>
      </trkpt>
      <trkpt lat="49.92504" lon="1.06599">
        <ele>43</ele>
        <time>2022-06-17T16:36:44+02:00</time>
      </trkpt>
      <trkpt lat="49.92503" lon="1.06635">
        <ele>44</ele>
        <time>2022-06-17T16:37:01+02:00</time>
      </trkpt>
      <trkpt lat="49.92505" lon="1.0667">
        <ele>42</ele>
        <time>2022-06-17T16:37:24+02:00</time>
      </trkpt>
      <trkpt lat="49.92508" lon="1.0674">
        <ele>41</ele>
        <time>2022-06-17T16:38:05+02:00</time>
      </trkpt>
      <trkpt lat="49.92507" lon="1.06777">
        <ele>41</ele>
        <time>2022-06-17T16:38:25+02:00</time>
      </trkpt>
      <trkpt lat="49.92513" lon="1.06811">
        <ele>38</ele>
        <time>2022-06-17T16:38:45+02:00</time>
      </trkpt>
      <trkpt lat="49.92517" lon="1.06845">
        <ele>36</ele>
        <time>2022-06-17T16:39:10+02:00</time>
      </trkpt>
      <trkpt lat="49.92521" lon="1.0688">
        <ele>35</ele>
        <time>2022-06-17T16:41:56+02:00</time>
      </trkpt>
      <trkpt lat="49.925" lon="1.06895">
        <ele>43</ele>
        <time>2022-06-17T16:43:29+02:00</time>
      </trkpt>
      <trkpt lat="49.92482" lon="1.06915">
        <ele>44</ele>
        <time>2022-06-17T16:43:50+02:00</time>
      </trkpt>
      <trkpt lat="49.92462" lon="1.06932">
        <ele>44</ele>
        <time>2022-06-17T16:44:11+02:00</time>
      </trkpt>
      <trkpt lat="49.92443" lon="1.06955">
        <ele>43</ele>
        <time>2022-06-17T16:44:32+02:00</time>
      </trkpt>
      <trkpt lat="49.92448" lon="1.0699">
        <ele>40</ele>
        <time>2022-06-17T16:45:51+02:00</time>
      </trkpt>
    </trkseg>
  </trk>
</gpx>